アナディリ の空港の天気 - METARとTAF

アナディリ・ウゴルヌイ空港 ( UHMA / DYR ) - ロシア アナディリ
飛行場実況気象(Metar)
観測時間05/23 11:30 MAGT (05/23 00:30 UTC)
風向・風速東南東 7m/s
視程10km以上
天気現象
少しの雲 雲底高度 400m
全天の4割程度の雲 雲底高度 580m
全天の8割程度の雲 雲底高度 6100m
気温1℃
湿度80%
気圧1007hPa
METARUHMA 230030Z 11007MPS 9999 FEW013 SCT019 BKN200 01/M02 Q1007 R88/60D NOSIG RMK END R19/11005MPS QFE750/1000
過去の天気等 Google飛行場航空写真 Wunderground天気予報

過去48時間のMETAR

飛行場予報(TAF)
発表時間: 5/23 09:41 MAGT (5/22 22:41 UTC)
予報対象時間: 23日11時 MAGT ~ 24日11時 MAGT
風向・風速東北東 3m/s
視程10km以上
全天の4割程度の雲 雲底高度 300m
全天の4割程度の雲 雲底高度 760m
23日11時 MAGT ~ 23日23時 MAGT に一時的に
風向・風速北 5m/s
視程1,000m
天気現象しゅう雪雨 もや
全天の8割程度の雲 雲底高度 240m
全天の8割程度の積乱雲 雲底高度 610m
23日23時 MAGT ~ 23日24時 MAGT に徐々に
風向・風速北 5m/s
24日0時 MAGT ~ 24日11時 MAGT に一時的に
風向・風速東北東 3m/s
視程2,000m
天気現象もや
全天の8割程度の雲 雲底高度 300m
TAF UHMA 222241Z 2300/2324 06003MPS 9999 SCT010 SCT025
TEMPO 2300/2312 36005MPS 1000 SHSNRA BR BKN008 BKN020CB
BECMG 2312/2313 01005MPS
TEMPO 2313/2324 06003MPS 2000 BR BKN010